Metar GG30 METAR message from awiacja.imgw.pl Metar G30 EPSC METAR EPSC 181330Z 27006KT 200V360 CAVOK 18/09 Q1029 =